sensor_id;sensor_type;location;lat;lon;timestamp;P1;durP1;ratioP1;P2;durP2;ratioP2
44452;SDS011;30155;52.164;21.236;2022-12-10T00:04:36;75.80;;;47.67;;
44452;SDS011;30155;52.164;21.236;2022-12-10T00:09:27;77.95;;;47.27;;
44452;SDS011;30155;52.164;21.236;2022-12-10T00:14:18;76.95;;;48.13;;
44452;SDS011;30155;52.164;21.236;2022-12-10T00:19:09;71.62;;;45.28;;
44452;SDS011;30155;52.164;21.236;2022-12-10T00:24:01;78.72;;;49.30;;
44452;SDS011;30155;52.164;21.236;2022-12-10T00:28:54;72.62;;;46.58;;
44452;SDS011;30155;52.164;21.236;2022-12-10T00:33:46;76.45;;;47.58;;
44452;SDS011;30155;52.164;21.236;2022-12-10T00:38:39;70.22;;;44.93;;
44452;SDS011;30155;52.164;21.236;2022-12-10T00:43:32;78.65;;;47.17;;
44452;SDS011;30155;52.164;21.236;2022-12-10T00:48:25;83.95;;;46.90;;
44452;SDS011;30155;52.164;21.236;2022-12-10T00:53:16;76.28;;;48.08;;
44452;SDS011;30155;52.164;21.236;2022-12-10T00:58:07;82.53;;;49.50;;
44452;SDS011;30155;52.164;21.236;2022-12-10T01:02:58;79.65;;;47.43;;
44452;SDS011;30155;52.164;21.236;2022-12-10T01:07:50;82.53;;;48.38;;
44452;SDS011;30155;52.164;21.236;2022-12-10T01:12:43;77.17;;;45.03;;
44452;SDS011;30155;52.164;21.236;2022-12-10T01:17:35;73.95;;;43.55;;
44452;SDS011;30155;52.164;21.236;2022-12-10T01:22:26;76.75;;;45.95;;
44452;SDS011;30155;52.164;21.236;2022-12-10T01:27:17;74.87;;;45.38;;
44452;SDS011;30155;52.164;21.236;2022-12-10T01:32:08;74.45;;;45.12;;
44452;SDS011;30155;52.164;21.236;2022-12-10T01:37:02;75.67;;;46.42;;
44452;SDS011;30155;52.164;21.236;2022-12-10T01:41:56;73.35;;;42.27;;
44452;SDS011;30155;52.164;21.236;2022-12-10T01:46:51;73.05;;;40.35;;
44452;SDS011;30155;52.164;21.236;2022-12-10T01:51:49;63.17;;;39.30;;
44452;SDS011;30155;52.164;21.236;2022-12-10T01:56:45;70.00;;;40.92;;
44452;SDS011;30155;52.164;21.236;2022-12-10T02:12:11;65.12;;;38.42;;
44452;SDS011;30155;52.164;21.236;2022-12-10T02:17:19;64.30;;;37.73;;
44452;SDS011;30155;52.164;21.236;2022-12-10T02:22:05;62.27;;;34.90;;
44452;SDS011;30155;52.164;21.236;2022-12-10T02:27:03;55.75;;;32.17;;
44452;SDS011;30155;52.164;21.236;2022-12-10T02:32:33;56.88;;;33.02;;
44452;SDS011;30155;52.164;21.236;2022-12-10T02:37:35;52.93;;;33.33;;
44452;SDS011;30155;52.164;21.236;2022-12-10T02:42:30;52.48;;;30.32;;
44452;SDS011;30155;52.164;21.236;2022-12-10T02:47:24;52.35;;;29.30;;
44452;SDS011;30155;52.164;21.236;2022-12-10T02:52:17;52.35;;;30.45;;
44452;SDS011;30155;52.164;21.236;2022-12-10T03:02:34;50.60;;;28.73;;
44452;SDS011;30155;52.164;21.236;2022-12-10T03:08:05;49.13;;;29.45;;
44452;SDS011;30155;52.164;21.236;2022-12-10T03:13:18;46.35;;;27.55;;
44452;SDS011;30155;52.164;21.236;2022-12-10T03:18:12;46.55;;;27.22;;
44452;SDS011;30155;52.164;21.236;2022-12-10T03:23:08;40.80;;;22.45;;
44452;SDS011;30155;52.164;21.236;2022-12-10T03:28:03;38.65;;;24.57;;
44452;SDS011;30155;52.164;21.236;2022-12-10T03:32:55;42.78;;;24.10;;
44452;SDS011;30155;52.164;21.236;2022-12-10T03:37:47;43.48;;;24.70;;
44452;SDS011;30155;52.164;21.236;2022-12-10T03:42:40;37.35;;;22.30;;
44452;SDS011;30155;52.164;21.236;2022-12-10T03:47:31;38.95;;;22.93;;
44452;SDS011;30155;52.164;21.236;2022-12-10T03:52:23;37.70;;;22.80;;
44452;SDS011;30155;52.164;21.236;2022-12-10T03:57:14;37.05;;;21.45;;
44452;SDS011;30155;52.164;21.236;2022-12-10T04:02:05;34.33;;;20.90;;
44452;SDS011;30155;52.164;21.236;2022-12-10T04:06:56;32.73;;;19.82;;
44452;SDS011;30155;52.164;21.236;2022-12-10T04:11:47;32.45;;;19.42;;
44452;SDS011;30155;52.164;21.236;2022-12-10T04:16:38;27.73;;;18.00;;
44452;SDS011;30155;52.164;21.236;2022-12-10T04:21:31;31.15;;;18.45;;
44452;SDS011;30155;52.164;21.236;2022-12-10T04:26:44;33.25;;;19.67;;
44452;SDS011;30155;52.164;21.236;2022-12-10T04:31:44;27.17;;;17.37;;
44452;SDS011;30155;52.164;21.236;2022-12-10T04:36:35;31.87;;;21.00;;
44452;SDS011;30155;52.164;21.236;2022-12-10T04:41:26;34.48;;;19.60;;
44452;SDS011;30155;52.164;21.236;2022-12-10T04:46:17;35.48;;;21.37;;
44452;SDS011;30155;52.164;21.236;2022-12-10T04:51:08;36.77;;;21.37;;
44452;SDS011;30155;52.164;21.236;2022-12-10T04:55:59;38.45;;;21.62;;
44452;SDS011;30155;52.164;21.236;2022-12-10T05:00:51;35.43;;;20.52;;
44452;SDS011;30155;52.164;21.236;2022-12-10T05:05:42;32.25;;;20.27;;
44452;SDS011;30155;52.164;21.236;2022-12-10T05:10:34;36.75;;;20.85;;
44452;SDS011;30155;52.164;21.236;2022-12-10T05:15:25;36.60;;;21.02;;
44452;SDS011;30155;52.164;21.236;2022-12-10T05:20:16;38.78;;;24.07;;
44452;SDS011;30155;52.164;21.236;2022-12-10T05:25:07;38.15;;;21.15;;
44452;SDS011;30155;52.164;21.236;2022-12-10T05:29:59;39.75;;;21.02;;
44452;SDS011;30155;52.164;21.236;2022-12-10T05:34:50;37.95;;;21.20;;
44452;SDS011;30155;52.164;21.236;2022-12-10T05:39:41;35.95;;;19.73;;
44452;SDS011;30155;52.164;21.236;2022-12-10T05:44:32;36.15;;;20.02;;
44452;SDS011;30155;52.164;21.236;2022-12-10T05:49:23;30.88;;;17.80;;
44452;SDS011;30155;52.164;21.236;2022-12-10T05:54:14;29.52;;;16.45;;
44452;SDS011;30155;52.164;21.236;2022-12-10T05:59:05;30.00;;;17.27;;
44452;SDS011;30155;52.164;21.236;2022-12-10T06:03:57;30.80;;;17.45;;
44452;SDS011;30155;52.164;21.236;2022-12-10T06:08:50;32.30;;;17.05;;
44452;SDS011;30155;52.164;21.236;2022-12-10T06:13:43;32.65;;;16.97;;
44452;SDS011;30155;52.164;21.236;2022-12-10T06:18:35;30.08;;;17.07;;
44452;SDS011;30155;52.164;21.236;2022-12-10T06:23:27;29.92;;;16.87;;
44452;SDS011;30155;52.164;21.236;2022-12-10T06:28:18;28.45;;;15.98;;
44452;SDS011;30155;52.164;21.236;2022-12-10T06:33:09;34.08;;;17.42;;
44452;SDS011;30155;52.164;21.236;2022-12-10T06:38:00;33.53;;;17.67;;
44452;SDS011;30155;52.164;21.236;2022-12-10T06:42:51;34.43;;;17.77;;
44452;SDS011;30155;52.164;21.236;2022-12-10T06:47:43;31.70;;;17.67;;
44452;SDS011;30155;52.164;21.236;2022-12-10T06:52:34;36.53;;;18.32;;
44452;SDS011;30155;52.164;21.236;2022-12-10T06:57:25;39.13;;;19.95;;
44452;SDS011;30155;52.164;21.236;2022-12-10T07:02:16;36.98;;;17.98;;
44452;SDS011;30155;52.164;21.236;2022-12-10T07:07:07;40.65;;;21.45;;
44452;SDS011;30155;52.164;21.236;2022-12-10T07:11:58;38.45;;;19.85;;
44452;SDS011;30155;52.164;21.236;2022-12-10T07:16:50;34.43;;;18.23;;
44452;SDS011;30155;52.164;21.236;2022-12-10T07:21:42;40.78;;;21.80;;
44452;SDS011;30155;52.164;21.236;2022-12-10T07:26:34;35.43;;;18.92;;
44452;SDS011;30155;52.164;21.236;2022-12-10T07:31:28;34.23;;;19.55;;
44452;SDS011;30155;52.164;21.236;2022-12-10T07:36:19;33.42;;;18.60;;
44452;SDS011;30155;52.164;21.236;2022-12-10T07:41:13;33.65;;;17.87;;
44452;SDS011;30155;52.164;21.236;2022-12-10T07:46:18;27.32;;;15.00;;
44452;SDS011;30155;52.164;21.236;2022-12-10T07:51:12;40.67;;;19.12;;
44452;SDS011;30155;52.164;21.236;2022-12-10T07:56:04;34.73;;;20.05;;
44452;SDS011;30155;52.164;21.236;2022-12-10T08:00:56;40.92;;;20.72;;
44452;SDS011;30155;52.164;21.236;2022-12-10T08:05:47;39.23;;;20.37;;
44452;SDS011;30155;52.164;21.236;2022-12-10T08:10:38;40.15;;;18.77;;
44452;SDS011;30155;52.164;21.236;2022-12-10T08:15:30;45.33;;;21.65;;
44452;SDS011;30155;52.164;21.236;2022-12-10T08:20:22;37.42;;;19.35;;
44452;SDS011;30155;52.164;21.236;2022-12-10T08:25:15;35.33;;;18.65;;
44452;SDS011;30155;52.164;21.236;2022-12-10T08:30:07;45.48;;;22.77;;
44452;SDS011;30155;52.164;21.236;2022-12-10T08:34:59;38.92;;;19.35;;
44452;SDS011;30155;52.164;21.236;2022-12-10T08:39:50;41.10;;;20.80;;
44452;SDS011;30155;52.164;21.236;2022-12-10T08:44:41;36.30;;;19.55;;
44452;SDS011;30155;52.164;21.236;2022-12-10T08:49:32;46.65;;;19.85;;
44452;SDS011;30155;52.164;21.236;2022-12-10T08:54:23;40.90;;;19.98;;
44452;SDS011;30155;52.164;21.236;2022-12-10T08:59:14;38.55;;;19.55;;
44452;SDS011;30155;52.164;21.236;2022-12-10T09:04:05;39.13;;;19.15;;
44452;SDS011;30155;52.164;21.236;2022-12-10T09:08:57;40.35;;;19.62;;
44452;SDS011;30155;52.164;21.236;2022-12-10T09:13:48;36.83;;;17.40;;
44452;SDS011;30155;52.164;21.236;2022-12-10T09:18:39;38.70;;;19.17;;
44452;SDS011;30155;52.164;21.236;2022-12-10T09:23:30;36.90;;;19.82;;
44452;SDS011;30155;52.164;21.236;2022-12-10T09:28:21;40.23;;;19.48;;
44452;SDS011;30155;52.164;21.236;2022-12-10T09:33:12;44.23;;;22.55;;
44452;SDS011;30155;52.164;21.236;2022-12-10T09:38:03;41.63;;;20.57;;
44452;SDS011;30155;52.164;21.236;2022-12-10T09:53:54;41.40;;;19.23;;
44452;SDS011;30155;52.164;21.236;2022-12-10T09:58:50;41.05;;;19.35;;
44452;SDS011;30155;52.164;21.236;2022-12-10T10:03:42;44.75;;;22.05;;
44452;SDS011;30155;52.164;21.236;2022-12-10T10:08:44;40.70;;;20.23;;
44452;SDS011;30155;52.164;21.236;2022-12-10T10:13:52;43.83;;;20.60;;
44452;SDS011;30155;52.164;21.236;2022-12-10T10:29:01;41.55;;;21.12;;
44452;SDS011;30155;52.164;21.236;2022-12-10T10:34:03;35.05;;;19.17;;
44452;SDS011;30155;52.164;21.236;2022-12-10T10:39:18;40.15;;;19.87;;
44452;SDS011;30155;52.164;21.236;2022-12-10T10:44:14;41.28;;;22.62;;
44452;SDS011;30155;52.164;21.236;2022-12-10T10:49:19;40.75;;;21.07;;
44452;SDS011;30155;52.164;21.236;2022-12-10T10:54:10;40.03;;;20.32;;
44452;SDS011;30155;52.164;21.236;2022-12-10T10:59:03;40.50;;;21.40;;
44452;SDS011;30155;52.164;21.236;2022-12-10T11:04:07;34.95;;;19.42;;
44452;SDS011;30155;52.164;21.236;2022-12-10T11:08:59;39.92;;;19.02;;
44452;SDS011;30155;52.164;21.236;2022-12-10T11:13:50;36.17;;;19.32;;
44452;SDS011;30155;52.164;21.236;2022-12-10T11:18:42;40.55;;;20.68;;
44452;SDS011;30155;52.164;21.236;2022-12-10T11:23:52;40.83;;;21.90;;
44452;SDS011;30155;52.164;21.236;2022-12-10T11:28:48;32.10;;;18.15;;
44452;SDS011;30155;52.164;21.236;2022-12-10T11:34:25;31.82;;;17.90;;
44452;SDS011;30155;52.164;21.236;2022-12-10T11:44:15;40.70;;;21.23;;
44452;SDS011;30155;52.164;21.236;2022-12-10T12:15:42;34.37;;;19.60;;
44452;SDS011;30155;52.164;21.236;2022-12-10T12:25:48;36.70;;;19.17;;
44452;SDS011;30155;52.164;21.236;2022-12-10T12:30:47;41.25;;;20.95;;
44452;SDS011;30155;52.164;21.236;2022-12-10T12:35:50;43.57;;;21.83;;
44452;SDS011;30155;52.164;21.236;2022-12-10T12:41:13;35.38;;;22.73;;
44452;SDS011;30155;52.164;21.236;2022-12-10T12:46:31;38.75;;;21.62;;
44452;SDS011;30155;52.164;21.236;2022-12-10T12:51:37;39.75;;;20.90;;
44452;SDS011;30155;52.164;21.236;2022-12-10T13:01:51;43.05;;;24.35;;
44452;SDS011;30155;52.164;21.236;2022-12-10T13:17:30;41.90;;;20.05;;
44452;SDS011;30155;52.164;21.236;2022-12-10T13:27:35;35.88;;;18.75;;
44452;SDS011;30155;52.164;21.236;2022-12-10T13:37:27;39.20;;;20.20;;
44452;SDS011;30155;52.164;21.236;2022-12-10T13:42:25;40.90;;;21.60;;
44452;SDS011;30155;52.164;21.236;2022-12-10T13:47:44;36.10;;;20.12;;
44452;SDS011;30155;52.164;21.236;2022-12-10T14:08:16;43.13;;;21.42;;
44452;SDS011;30155;52.164;21.236;2022-12-10T14:13:10;41.90;;;23.27;;
44452;SDS011;30155;52.164;21.236;2022-12-10T14:18:09;49.80;;;24.55;;
44452;SDS011;30155;52.164;21.236;2022-12-10T14:23:03;45.78;;;25.05;;
44452;SDS011;30155;52.164;21.236;2022-12-10T14:28:16;45.60;;;24.50;;
44452;SDS011;30155;52.164;21.236;2022-12-10T14:33:08;45.25;;;23.70;;
44452;SDS011;30155;52.164;21.236;2022-12-10T14:38:05;44.37;;;23.60;;
44452;SDS011;30155;52.164;21.236;2022-12-10T14:43:02;42.60;;;23.98;;
44452;SDS011;30155;52.164;21.236;2022-12-10T14:48:10;45.90;;;25.30;;
44452;SDS011;30155;52.164;21.236;2022-12-10T14:53:05;39.15;;;22.17;;
44452;SDS011;30155;52.164;21.236;2022-12-10T14:58:01;41.47;;;23.30;;
44452;SDS011;30155;52.164;21.236;2022-12-10T15:02:56;39.88;;;23.30;;
44452;SDS011;30155;52.164;21.236;2022-12-10T15:07:52;39.67;;;22.73;;
44452;SDS011;30155;52.164;21.236;2022-12-10T15:12:56;36.13;;;22.87;;
44452;SDS011;30155;52.164;21.236;2022-12-10T15:17:59;43.08;;;24.98;;
44452;SDS011;30155;52.164;21.236;2022-12-10T15:23:34;43.45;;;26.02;;
44452;SDS011;30155;52.164;21.236;2022-12-10T15:28:22;43.33;;;26.27;;
44452;SDS011;30155;52.164;21.236;2022-12-10T15:33:30;44.63;;;25.77;;
44452;SDS011;30155;52.164;21.236;2022-12-10T15:38:27;44.83;;;25.95;;
44452;SDS011;30155;52.164;21.236;2022-12-10T15:48:19;38.63;;;24.67;;
44452;SDS011;30155;52.164;21.236;2022-12-10T15:53:12;38.65;;;23.10;;
44452;SDS011;30155;52.164;21.236;2022-12-10T15:58:11;38.78;;;24.35;;
44452;SDS011;30155;52.164;21.236;2022-12-10T16:03:04;38.42;;;23.55;;
44452;SDS011;30155;52.164;21.236;2022-12-10T16:07:56;38.65;;;24.35;;
44452;SDS011;30155;52.164;21.236;2022-12-10T16:12:56;49.40;;;29.35;;
44452;SDS011;30155;52.164;21.236;2022-12-10T16:17:50;38.85;;;26.05;;
44452;SDS011;30155;52.164;21.236;2022-12-10T16:22:42;43.50;;;25.50;;
44452;SDS011;30155;52.164;21.236;2022-12-10T16:33:17;42.15;;;26.12;;
44452;SDS011;30155;52.164;21.236;2022-12-10T16:38:10;33.88;;;23.12;;
44452;SDS011;30155;52.164;21.236;2022-12-10T16:43:02;37.30;;;24.85;;
44452;SDS011;30155;52.164;21.236;2022-12-10T16:47:53;38.83;;;24.55;;
44452;SDS011;30155;52.164;21.236;2022-12-10T16:52:45;38.73;;;24.63;;
44452;SDS011;30155;52.164;21.236;2022-12-10T16:57:36;36.60;;;23.65;;
44452;SDS011;30155;52.164;21.236;2022-12-10T17:02:29;38.73;;;23.95;;
44452;SDS011;30155;52.164;21.236;2022-12-10T17:07:20;41.60;;;25.45;;
44452;SDS011;30155;52.164;21.236;2022-12-10T17:12:12;39.35;;;24.02;;
44452;SDS011;30155;52.164;21.236;2022-12-10T17:17:04;42.88;;;25.45;;
44452;SDS011;30155;52.164;21.236;2022-12-10T17:21:57;37.42;;;25.17;;
44452;SDS011;30155;52.164;21.236;2022-12-10T17:26:49;38.95;;;25.05;;
44452;SDS011;30155;52.164;21.236;2022-12-10T17:31:42;36.15;;;23.30;;
44452;SDS011;30155;52.164;21.236;2022-12-10T17:36:34;38.63;;;24.02;;
44452;SDS011;30155;52.164;21.236;2022-12-10T17:41:25;43.83;;;30.35;;
44452;SDS011;30155;52.164;21.236;2022-12-10T17:46:18;38.98;;;24.90;;
44452;SDS011;30155;52.164;21.236;2022-12-10T17:51:13;42.57;;;26.73;;
44452;SDS011;30155;52.164;21.236;2022-12-10T17:56:05;36.70;;;24.18;;
44452;SDS011;30155;52.164;21.236;2022-12-10T18:01:06;40.52;;;25.97;;
44452;SDS011;30155;52.164;21.236;2022-12-10T18:05:59;39.95;;;26.35;;
44452;SDS011;30155;52.164;21.236;2022-12-10T18:10:50;36.33;;;23.60;;
44452;SDS011;30155;52.164;21.236;2022-12-10T18:15:46;40.60;;;25.97;;
44452;SDS011;30155;52.164;21.236;2022-12-10T18:20:38;39.85;;;24.63;;
44452;SDS011;30155;52.164;21.236;2022-12-10T18:25:31;42.05;;;26.25;;
44452;SDS011;30155;52.164;21.236;2022-12-10T18:30:23;37.25;;;22.85;;
44452;SDS011;30155;52.164;21.236;2022-12-10T18:35:15;35.83;;;23.07;;
44452;SDS011;30155;52.164;21.236;2022-12-10T18:40:10;36.90;;;22.62;;
44452;SDS011;30155;52.164;21.236;2022-12-10T18:45:09;35.75;;;23.30;;
44452;SDS011;30155;52.164;21.236;2022-12-10T18:50:02;33.33;;;23.60;;
44452;SDS011;30155;52.164;21.236;2022-12-10T18:54:54;51.53;;;29.05;;
44452;SDS011;30155;52.164;21.236;2022-12-10T18:59:45;111.90;;;52.35;;
44452;SDS011;30155;52.164;21.236;2022-12-10T19:04:36;47.35;;;24.87;;
44452;SDS011;30155;52.164;21.236;2022-12-10T19:09:27;62.55;;;34.55;;
44452;SDS011;30155;52.164;21.236;2022-12-10T19:14:19;61.63;;;35.45;;
44452;SDS011;30155;52.164;21.236;2022-12-10T19:19:16;52.50;;;30.32;;
44452;SDS011;30155;52.164;21.236;2022-12-10T19:24:08;42.90;;;27.15;;
44452;SDS011;30155;52.164;21.236;2022-12-10T19:29:02;43.35;;;25.25;;
44452;SDS011;30155;52.164;21.236;2022-12-10T19:34:03;39.70;;;24.37;;
44452;SDS011;30155;52.164;21.236;2022-12-10T19:38:54;36.73;;;23.90;;
44452;SDS011;30155;52.164;21.236;2022-12-10T19:43:45;42.93;;;25.10;;
44452;SDS011;30155;52.164;21.236;2022-12-10T19:48:37;36.85;;;22.10;;
44452;SDS011;30155;52.164;21.236;2022-12-10T19:53:28;39.60;;;24.37;;
44452;SDS011;30155;52.164;21.236;2022-12-10T19:58:19;34.67;;;23.70;;
44452;SDS011;30155;52.164;21.236;2022-12-10T20:03:10;38.63;;;23.02;;
44452;SDS011;30155;52.164;21.236;2022-12-10T20:08:01;34.03;;;21.93;;
44452;SDS011;30155;52.164;21.236;2022-12-10T20:12:53;37.28;;;22.82;;
44452;SDS011;30155;52.164;21.236;2022-12-10T20:17:44;35.78;;;21.97;;
44452;SDS011;30155;52.164;21.236;2022-12-10T20:22:36;34.63;;;20.37;;
44452;SDS011;30155;52.164;21.236;2022-12-10T20:27:26;35.45;;;21.15;;
44452;SDS011;30155;52.164;21.236;2022-12-10T20:32:17;39.25;;;24.87;;
44452;SDS011;30155;52.164;21.236;2022-12-10T20:37:09;43.28;;;22.22;;
44452;SDS011;30155;52.164;21.236;2022-12-10T20:42:02;39.53;;;24.23;;
44452;SDS011;30155;52.164;21.236;2022-12-10T20:46:54;47.27;;;30.35;;
44452;SDS011;30155;52.164;21.236;2022-12-10T20:51:47;41.63;;;24.52;;
44452;SDS011;30155;52.164;21.236;2022-12-10T20:56:39;37.55;;;23.35;;
44452;SDS011;30155;52.164;21.236;2022-12-10T21:01:31;35.38;;;22.40;;
44452;SDS011;30155;52.164;21.236;2022-12-10T21:06:27;36.42;;;21.23;;
44452;SDS011;30155;52.164;21.236;2022-12-10T21:11:17;33.15;;;20.32;;
44452;SDS011;30155;52.164;21.236;2022-12-10T21:16:10;35.60;;;20.97;;
44452;SDS011;30155;52.164;21.236;2022-12-10T21:21:05;32.95;;;20.10;;
44452;SDS011;30155;52.164;21.236;2022-12-10T21:25:58;33.00;;;20.55;;
44452;SDS011;30155;52.164;21.236;2022-12-10T21:30:49;34.38;;;19.82;;
44452;SDS011;30155;52.164;21.236;2022-12-10T21:35:40;35.55;;;19.30;;
44452;SDS011;30155;52.164;21.236;2022-12-10T21:40:31;35.80;;;20.17;;
44452;SDS011;30155;52.164;21.236;2022-12-10T21:45:26;38.35;;;20.45;;
44452;SDS011;30155;52.164;21.236;2022-12-10T21:50:19;34.35;;;20.85;;
44452;SDS011;30155;52.164;21.236;2022-12-10T21:55:10;36.42;;;22.85;;
44452;SDS011;30155;52.164;21.236;2022-12-10T22:00:10;28.15;;;17.35;;
44452;SDS011;30155;52.164;21.236;2022-12-10T22:05:03;33.50;;;20.50;;
44452;SDS011;30155;52.164;21.236;2022-12-10T22:09:55;30.23;;;17.45;;
44452;SDS011;30155;52.164;21.236;2022-12-10T22:14:46;35.85;;;19.00;;
44452;SDS011;30155;52.164;21.236;2022-12-10T22:19:37;33.08;;;19.70;;
44452;SDS011;30155;52.164;21.236;2022-12-10T22:24:33;29.98;;;17.17;;
44452;SDS011;30155;52.164;21.236;2022-12-10T22:29:21;31.87;;;19.05;;
44452;SDS011;30155;52.164;21.236;2022-12-10T22:34:14;36.10;;;22.85;;
44452;SDS011;30155;52.164;21.236;2022-12-10T22:39:05;32.67;;;22.25;;
44452;SDS011;30155;52.164;21.236;2022-12-10T22:44:09;30.88;;;18.85;;
44452;SDS011;30155;52.164;21.236;2022-12-10T22:49:09;37.38;;;23.20;;
44452;SDS011;30155;52.164;21.236;2022-12-10T22:54:00;38.05;;;22.58;;
44452;SDS011;30155;52.164;21.236;2022-12-10T22:58:52;38.65;;;22.07;;
44452;SDS011;30155;52.164;21.236;2022-12-10T23:03:44;42.90;;;22.13;;
44452;SDS011;30155;52.164;21.236;2022-12-10T23:08:36;38.83;;;21.95;;
44452;SDS011;30155;52.164;21.236;2022-12-10T23:13:28;38.20;;;21.48;;
44452;SDS011;30155;52.164;21.236;2022-12-10T23:18:21;39.53;;;22.77;;
44452;SDS011;30155;52.164;21.236;2022-12-10T23:23:13;39.95;;;21.00;;
44452;SDS011;30155;52.164;21.236;2022-12-10T23:28:04;35.43;;;20.08;;
44452;SDS011;30155;52.164;21.236;2022-12-10T23:32:55;39.13;;;21.62;;
44452;SDS011;30155;52.164;21.236;2022-12-10T23:37:46;37.73;;;20.20;;
44452;SDS011;30155;52.164;21.236;2022-12-10T23:42:37;38.15;;;21.45;;
44452;SDS011;30155;52.164;21.236;2022-12-10T23:47:28;34.92;;;21.05;;
44452;SDS011;30155;52.164;21.236;2022-12-10T23:52:19;38.58;;;20.92;;
44452;SDS011;30155;52.164;21.236;2022-12-10T23:57:11;34.33;;;21.12;;
